Fort Walton Beach, FL (32548)

5:13 PM CDT on May 28, 2015 (GMT -0500)
Charlie's Island Roll Tide! | | Change Station
CLOSE
Current Station
Personal Weather Station
Location: Fort Walton Beach, FL
Elevation: 10 ft
Nearby Weather Stations

Elev 10 ft 30.40 °N, 86.61 °W | Updated 11 minutes ago

Mostly Cloudy
Mostly Cloudy
76.5 °F
Feels Like 78 °F
N
6.8
Wind Variable Wind from SE

Today
High -- | Low -- °F
--% Chance of Precip.
Yesterday
High -- | Low -- °F
Precip. -- in
5:46 AM 7:41 PM
Waxing Gibbous, 79% visible
Pressure 30.08 in
Visibility 10.0 miles
Clouds Scattered Clouds 2400 ft
Mostly Cloudy 6000 ft
Overcast 10000 ft
Heat Index 78 °F
Dew Point 70 °F
Humidity 80%
Rainfall 0.00 in
Snow Depth Not available.
UV 1 out of 12
Pollen 3.50 out of 12
Air Quality Not available.
Flu Activity Sporadic
SPECI KHRT 282201Z COR 09010G14KT 10SM VCTS SCT024 BKN060 OVC100 26/21 A3008 RMK AO2A LTG DSNT N AND SE-S RAE2159DZB2159E01 COR 2205

More Conditions Fewer Conditions

Pressure 30.08 in
Visibility 10.0 miles
Clouds Scattered Clouds 2400 ft
Mostly Cloudy 6000 ft
Overcast 10000 ft
Heat Index 78 °F
Dew Point 70 °F
Humidity 80%
Rainfall 0.00 in
Snow Depth Not available.
UV 1 out of 12
Pollen 3.50 out of 12
Air Quality Not available.
Flu Activity Sporadic
SPECI KHRT 282201Z COR 09010G14KT 10SM VCTS SCT024 BKN060 OVC100 26/21 A3008 RMK AO2A LTG DSNT N AND SE-S RAE2159DZB2159E01 COR 2205

More Conditions Fewer Conditions

10-Day Weather Forecast

Almanac

Astronomy

May. 28, 2015 Rise Set
Actual Time
Civil Twilight
Nautical Twilight
Astronomical Twilight
Moon
Length of Visible Light
Length of Day
Tomorrow will be .
, % of the Moon is Illuminated

Today's Extremes

State Highs State Lows

Community

WunderPhotos

Upload Photos

1,825,077 photos uploaded!

WunderBlogs® & News

Nearby

Air Quality

  Air Quality AQ Index Pollutant
Not available.

Snow Depth

Station Depth Elevation

Earthquake Activity

City Distance Mag. Time & Date
Minimum magnitude displayed is 2.5.

Coastal Water Temperatures

Place Temperature

Stations

Nearby Weather Stations

Station Location Temp. Windchill Dew Point Humidity Wind Precip. Elev Updated Type